createdAt,value
2023-04-21T00:00:57.471Z,64.08
2023-04-21T00:03:27.099Z,62.09
2023-04-21T00:05:59.149Z,60.82
2023-04-21T00:08:28.297Z,59.63
2023-04-21T00:10:57.734Z,57.50
2023-04-21T00:13:25.337Z,57.43
2023-04-21T00:15:53.273Z,58.95
2023-04-21T00:18:21.974Z,60.36
2023-04-21T00:20:49.952Z,61.61
2023-04-21T00:23:22.140Z,64.82
2023-04-21T00:25:49.516Z,66.29
2023-04-21T00:28:17.099Z,64.41
2023-04-21T00:30:46.011Z,62.59
2023-04-21T00:33:14.505Z,61.27
2023-04-21T00:35:42.768Z,60.16
2023-04-21T00:38:11.636Z,58.09
2023-04-21T00:40:38.993Z,57.89
2023-04-21T00:43:30.594Z,59.14
2023-04-21T00:45:58.161Z,60.39
2023-04-21T00:48:26.524Z,61.71
2023-04-21T00:51:05.366Z,65.18
2023-04-21T00:53:33.374Z,66.54
2023-04-21T00:56:03.115Z,64.39
2023-04-21T00:58:34.464Z,62.23
2023-04-21T01:04:55.195Z,57.79
2023-04-21T01:08:44.204Z,58.42
2023-04-21T01:12:42.287Z,60.28
2023-04-21T01:16:30.295Z,61.82
2023-04-21T01:20:20.836Z,67.72
2023-04-21T01:24:08.714Z,65.01
2023-04-21T01:28:00.857Z,61.65
2023-04-21T01:31:48.700Z,59.32
2023-04-21T01:35:39.782Z,56.70
2023-04-21T01:39:27.619Z,58.77
2023-04-21T01:43:16.009Z,60.80
2023-04-21T01:47:11.282Z,66.42
2023-04-21T01:54:41.637Z,60.33
2023-04-21T02:13:56.868Z,66.73
2023-04-21T02:17:06.476Z,65.22
2023-04-21T02:23:24.816Z,60.48
2023-04-21T02:27:12.714Z,56.81
2023-04-21T02:31:16.117Z,58.18
2023-04-21T02:35:04.271Z,59.71
2023-04-21T02:38:53.543Z,61.04
2023-04-21T02:42:41.702Z,66.87
2023-04-21T02:46:30.010Z,64.71
2023-04-21T02:50:19.597Z,61.28
2023-04-21T02:53:47.198Z,57.12
2023-04-21T02:57:35.201Z,57.65
2023-04-21T03:01:26.106Z,59.20
2023-04-21T03:05:15.142Z,60.82
2023-04-21T03:09:05.812Z,66.38
2023-04-21T03:12:53.861Z,63.72
2023-04-21T03:16:41.788Z,60.34
2023-04-21T03:20:29.744Z,56.31
2023-04-21T03:24:17.373Z,57.40
2023-04-21T03:28:07.906Z,59.27
2023-04-21T03:31:58.287Z,60.83
2023-04-21T03:35:46.669Z,66.90
2023-04-21T03:39:35.318Z,64.30
2023-04-21T03:43:23.194Z,60.49
2023-04-21T03:47:11.314Z,56.60
2023-04-21T03:50:59.714Z,57.58
2023-04-21T03:54:47.631Z,59.22
2023-04-21T03:58:35.527Z,60.29
2023-04-21T04:02:23.659Z,66.72
2023-04-21T04:06:14.253Z,64.41
2023-04-21T04:10:02.522Z,60.54
2023-04-21T04:13:50.057Z,56.03
2023-04-21T04:17:40.842Z,57.73
2023-04-21T04:21:28.428Z,59.82
2023-04-21T04:25:16.879Z,60.95
2023-04-21T04:29:08.656Z,67.78
2023-04-21T04:32:58.157Z,64.88
2023-04-21T04:36:46.399Z,60.92
2023-04-21T04:40:35.543Z,56.90
2023-04-21T04:44:24.591Z,58.58
2023-04-21T04:52:00.492Z,62.19
2023-04-21T04:55:48.896Z,68.98
2023-04-21T04:59:40.888Z,66.06
2023-04-21T05:03:28.572Z,61.42
2023-04-21T05:07:16.270Z,58.29
2023-04-21T05:14:58.326Z,59.04
2023-04-21T05:22:35.194Z,67.36
2023-04-21T05:26:23.359Z,64.71
2023-04-21T05:30:14.164Z,61.09
2023-04-21T05:34:01.917Z,58.28
2023-04-21T05:37:51.276Z,57.72
2023-04-21T05:41:38.908Z,60.19
2023-04-21T05:45:26.674Z,62.45
2023-04-21T05:49:15.479Z,68.49
2023-04-21T05:53:03.735Z,66.06
2023-04-21T05:56:51.426Z,62.85
2023-04-21T06:00:39.727Z,60.95
2023-04-21T06:04:28.872Z,60.15
2023-04-21T06:08:16.573Z,57.83
2023-04-21T06:12:04.702Z,57.70
2023-04-21T06:15:55.319Z,59.65
2023-04-21T06:19:44.496Z,63.35
2023-04-21T06:23:32.318Z,62.34
2023-04-21T06:27:20.226Z,58.13
2023-04-21T06:36:49.615Z,59.74
2023-04-21T06:40:37.328Z,60.57
2023-04-21T06:44:26.242Z,61.43
2023-04-21T07:04:09.250Z,56.22
2023-04-21T07:08:01.296Z,57.75
2023-04-21T07:11:49.409Z,57.28
2023-04-21T07:15:36.795Z,57.98
2023-04-21T07:19:26.801Z,58.09
2023-04-21T07:23:15.041Z,56.55
2023-04-21T07:27:03.820Z,56.10
2023-04-21T07:30:51.999Z,56.34
2023-04-21T07:34:43.056Z,55.96
2023-04-21T07:38:28.649Z,55.51
2023-04-21T07:45:11.718Z,54.00
2023-04-21T07:49:00.544Z,54.65
2023-04-21T07:52:49.108Z,53.29
2023-04-21T07:56:20.298Z,53.78
2023-04-21T08:06:31.051Z,47.63
2023-04-21T08:23:07.892Z,49.65
2023-04-21T08:26:09.336Z,48.92
2023-04-21T08:37:35.477Z,46.20
2023-04-21T08:41:00.364Z,43.87
2023-04-21T08:44:24.842Z,42.61
2023-04-21T09:00:06.463Z,42.28
2023-04-21T09:03:25.054Z,42.70
2023-04-21T09:06:06.852Z,40.94
2023-04-21T09:08:39.316Z,41.01
2023-04-21T09:14:47.435Z,38.47
2023-04-21T09:17:23.632Z,38.21
2023-04-21T09:19:57.833Z,38.70
2023-04-21T09:22:46.835Z,40.00
2023-04-21T09:31:20.376Z,37.98
2023-04-21T09:34:02.728Z,37.73
2023-04-21T09:39:57.269Z,38.04
2023-04-21T09:43:05.321Z,38.25
2023-04-21T09:50:35.832Z,36.60
2023-04-21T09:59:39.113Z,36.12
2023-04-21T10:02:39.900Z,36.80
2023-04-21T10:05:38.158Z,37.28
2023-04-21T10:08:23.712Z,37.73
2023-04-21T10:14:21.286Z,37.49
2023-04-21T10:17:09.717Z,37.49
2023-04-21T10:25:39.466Z,36.55
2023-04-21T10:57:08.612Z,35.71
2023-04-21T11:03:03.741Z,36.31
2023-04-21T11:06:25.969Z,36.09
2023-04-21T11:09:10.737Z,36.01
2023-04-21T11:12:43.437Z,36.35
2023-04-21T11:16:10.091Z,36.71
2023-04-21T11:18:47.092Z,37.00
2023-04-21T11:21:28.742Z,37.47
2023-04-21T11:24:23.653Z,37.42
2023-04-21T11:26:53.263Z,35.53
2023-04-21T11:33:03.794Z,34.43
2023-04-21T11:36:18.069Z,33.54
2023-04-21T11:41:59.595Z,34.28
2023-04-21T11:48:58.136Z,34.01
2023-04-21T11:52:08.419Z,34.52
2023-04-21T11:54:37.294Z,34.42
2023-04-21T12:00:24.004Z,34.40
2023-04-21T12:04:12.308Z,34.72
2023-04-21T12:08:03.200Z,35.06
2023-04-21T12:11:54.027Z,34.90
2023-04-21T12:15:25.651Z,32.76
2023-04-21T12:19:16.457Z,33.76
2023-04-21T12:23:04.130Z,34.53
2023-04-21T12:26:50.840Z,34.98
2023-04-21T12:30:42.367Z,35.44
2023-04-21T12:34:34.069Z,34.59
2023-04-21T12:38:28.400Z,32.48
2023-04-21T12:42:15.932Z,33.88
2023-04-21T12:49:23.236Z,33.48
2023-04-21T12:53:12.083Z,33.62
2023-04-21T12:57:03.354Z,33.88
2023-04-21T13:00:51.075Z,33.50
2023-04-21T13:04:39.318Z,32.93
2023-04-21T13:11:40.672Z,31.53
2023-04-21T13:21:37.068Z,29.76
2023-04-21T13:25:28.413Z,30.41
2023-04-21T13:29:19.524Z,30.82
2023-04-21T13:33:10.050Z,30.58
2023-04-21T13:37:01.788Z,31.64
2023-04-21T13:40:49.941Z,31.23
2023-04-21T13:44:38.525Z,32.26
2023-04-21T13:48:26.455Z,32.58
2023-04-21T13:52:15.050Z,31.58
2023-04-21T13:56:04.504Z,31.32
2023-04-21T13:59:55.693Z,30.30
2023-04-21T14:03:43.876Z,30.09
2023-04-21T14:07:31.778Z,29.79
2023-04-21T14:11:19.486Z,31.00
2023-04-21T14:15:07.871Z,31.50
2023-04-21T14:18:56.791Z,32.35
2023-04-21T14:22:44.693Z,32.32
2023-04-21T14:26:33.870Z,29.81
2023-04-21T14:30:22.280Z,30.59
2023-04-21T14:34:10.411Z,29.58
2023-04-21T14:37:58.623Z,29.96
2023-04-21T14:41:46.939Z,30.11
2023-04-21T14:44:49.305Z,30.63
2023-04-21T14:52:30.230Z,28.72
2023-04-21T14:56:19.474Z,29.76
2023-04-21T15:00:08.466Z,29.19
2023-04-21T15:03:36.148Z,30.05
2023-04-21T15:07:18.911Z,30.20
2023-04-21T15:11:03.363Z,29.30
2023-04-21T15:14:51.343Z,29.09
2023-04-21T15:18:39.224Z,29.54
2023-04-21T15:22:27.352Z,27.31
2023-04-21T15:26:18.128Z,27.86
2023-04-21T15:30:06.317Z,27.61
2023-04-21T15:37:38.827Z,29.05
2023-04-21T15:41:29.678Z,28.87
2023-04-21T15:45:17.722Z,28.60
2023-04-21T15:49:05.810Z,28.25
2023-04-21T15:52:53.834Z,29.28
2023-04-21T15:56:41.911Z,29.44
2023-04-21T16:00:30.364Z,29.88
2023-04-21T16:04:18.489Z,29.62
2023-04-21T16:08:06.520Z,29.72
2023-04-21T16:15:44.229Z,29.63
2023-04-21T16:19:32.725Z,29.82
2023-04-21T16:23:20.568Z,30.00
2023-04-21T16:27:09.121Z,29.88
2023-04-21T16:30:56.068Z,29.56
2023-04-21T16:34:12.277Z,29.74
2023-04-21T16:37:39.906Z,29.86
2023-04-21T16:41:27.091Z,29.94
2023-04-21T16:45:14.218Z,30.34
2023-04-21T16:49:02.091Z,30.76
2023-04-21T16:52:33.042Z,30.43
2023-04-21T16:56:24.053Z,31.27
2023-04-21T17:00:11.315Z,31.86
2023-04-21T17:03:38.631Z,31.98
2023-04-21T17:06:48.714Z,32.14
2023-04-21T17:10:16.730Z,32.90
2023-04-21T17:13:44.064Z,33.16
2023-04-21T17:17:32.820Z,34.08
2023-04-21T17:21:21.539Z,34.08
2023-04-21T17:25:09.260Z,34.97
2023-04-21T17:28:57.086Z,35.84
2023-04-21T17:32:24.795Z,35.79
2023-04-21T17:36:03.412Z,36.39
2023-04-21T17:39:34.725Z,36.74
2023-04-21T17:43:23.560Z,37.30
2023-04-21T17:47:14.205Z,37.75
2023-04-21T17:51:02.761Z,38.17
2023-04-21T17:54:50.797Z,38.54
2023-04-21T17:58:44.973Z,39.03
2023-04-21T18:02:33.177Z,39.61
2023-04-21T18:06:01.492Z,40.27
2023-04-21T18:13:33.769Z,41.21
2023-04-21T18:17:06.953Z,41.63
2023-04-21T18:20:57.349Z,42.23
2023-04-21T18:24:45.649Z,42.87
2023-04-21T18:28:33.704Z,43.06
2023-04-21T18:32:25.062Z,43.63
2023-04-21T18:36:15.589Z,44.19
2023-04-21T18:40:04.862Z,44.39
2023-04-21T18:44:00.791Z,44.66
2023-04-21T18:47:48.839Z,44.76
2023-04-21T18:51:36.670Z,45.41
2023-04-21T18:55:10.040Z,45.81
2023-04-21T18:58:57.810Z,46.48
2023-04-21T19:02:45.633Z,47.44
2023-04-21T19:06:33.930Z,47.39
2023-04-21T19:10:21.569Z,47.43
2023-04-21T19:13:30.630Z,48.51
2023-04-21T19:16:51.327Z,49.33
2023-04-21T19:20:02.070Z,49.91
2023-04-21T19:23:30.617Z,49.94
2023-04-21T19:27:20.892Z,49.98
2023-04-21T19:30:01.978Z,51.08
2023-04-21T19:33:49.562Z,50.71
2023-04-21T19:37:10.132Z,51.53
2023-04-21T19:40:38.168Z,51.66
2023-04-21T19:44:01.528Z,52.06
2023-04-21T19:47:20.034Z,52.30
2023-04-21T19:50:17.865Z,52.29
2023-04-21T19:53:20.529Z,51.94
2023-04-21T19:56:14.375Z,52.92
2023-04-21T19:59:42.129Z,52.56
2023-04-21T20:02:11.480Z,52.88
2023-04-21T20:05:10.830Z,53.58
2023-04-21T20:08:25.250Z,54.12
2023-04-21T20:11:47.874Z,54.69
2023-04-21T20:15:04.701Z,55.42
2023-04-21T20:17:57.523Z,55.69
2023-04-21T20:20:47.254Z,56.23
2023-04-21T20:23:36.777Z,56.37
2023-04-21T20:26:31.036Z,56.75
2023-04-21T20:29:40.601Z,57.01
2023-04-21T20:32:34.955Z,56.78
2023-04-21T20:35:16.952Z,56.92
2023-04-21T20:37:50.168Z,57.53
2023-04-21T20:40:43.500Z,57.97
2023-04-21T20:43:12.818Z,57.83
2023-04-21T20:45:44.309Z,58.08
2023-04-21T20:48:12.566Z,58.30
2023-04-21T20:50:40.193Z,58.67
2023-04-21T20:53:09.783Z,58.68
2023-04-21T20:55:37.958Z,58.97
2023-04-21T20:58:10.743Z,59.24
2023-04-21T21:00:38.300Z,58.97
2023-04-21T21:03:11.383Z,59.13
2023-04-21T21:05:39.907Z,59.43
2023-04-21T21:08:09.586Z,59.25
2023-04-21T21:10:39.897Z,59.44
2023-04-21T21:13:32.624Z,59.87
2023-04-21T21:16:00.645Z,59.93
2023-04-21T21:19:10.517Z,60.26
2023-04-21T21:21:59.246Z,60.34
2023-04-21T21:24:29.531Z,60.58
2023-04-21T21:26:58.600Z,61.05
2023-04-21T21:29:54.936Z,61.46
2023-04-21T21:33:02.138Z,61.67
2023-04-21T21:35:49.849Z,61.68
2023-04-21T21:38:23.406Z,62.06
2023-04-21T21:40:51.658Z,62.24
2023-04-21T21:43:29.621Z,64.64
2023-04-21T21:46:00.897Z,68.81
2023-04-21T21:49:10.916Z,67.14
2023-04-21T21:51:58.384Z,63.07
2023-04-21T21:54:26.289Z,57.02
2023-04-21T21:56:54.463Z,54.89
2023-04-21T21:59:22.352Z,55.22
2023-04-21T22:01:55.406Z,56.07
2023-04-21T22:04:23.308Z,56.87
2023-04-21T22:06:51.071Z,57.81
2023-04-21T22:09:19.567Z,58.07
2023-04-21T22:11:47.603Z,58.54
2023-04-21T22:14:22.549Z,59.18
2023-04-21T22:16:53.632Z,59.70
2023-04-21T22:19:23.059Z,60.10
2023-04-21T22:21:50.645Z,60.15
2023-04-21T22:24:18.908Z,60.38
2023-04-21T22:26:46.607Z,60.79
2023-04-21T22:29:14.077Z,61.00
2023-04-21T22:31:43.210Z,61.00
2023-04-21T22:34:10.821Z,61.67
2023-04-21T22:36:38.077Z,62.09
2023-04-21T22:39:06.836Z,64.85
2023-04-21T22:41:34.946Z,68.17
2023-04-21T22:44:02.199Z,66.11
2023-04-21T22:46:32.967Z,63.11
2023-04-21T22:49:02.831Z,60.91
2023-04-21T22:51:32.853Z,57.14
2023-04-21T22:54:01.309Z,55.70
2023-04-21T22:56:29.912Z,56.86
2023-04-21T22:58:57.904Z,57.60
2023-04-21T23:01:25.346Z,58.21
2023-04-21T23:03:52.774Z,59.19
2023-04-21T23:06:20.717Z,59.65
2023-04-21T23:08:48.456Z,60.04
2023-04-21T23:11:15.899Z,60.27
2023-04-21T23:13:43.572Z,60.77
2023-04-21T23:16:12.263Z,61.34
2023-04-21T23:18:39.520Z,61.80
2023-04-21T23:21:07.062Z,62.15
2023-04-21T23:23:34.605Z,64.95
2023-04-21T23:26:02.801Z,68.03
2023-04-21T23:28:30.535Z,66.29
2023-04-21T23:30:58.821Z,63.46
2023-04-21T23:33:26.086Z,61.43
2023-04-21T23:35:53.807Z,57.92
2023-04-21T23:38:21.327Z,56.15
2023-04-21T23:40:48.803Z,56.80
2023-04-21T23:43:16.230Z,57.85
2023-04-21T23:45:43.572Z,58.66
2023-04-21T23:48:10.913Z,59.43
2023-04-21T23:50:38.221Z,60.04
2023-04-21T23:53:05.824Z,60.46
2023-04-21T23:55:33.105Z,60.86
2023-04-21T23:58:01.105Z,61.46
